createdAt,value
2018-09-23T00:00:51.957Z,38.63
2018-09-23T00:01:57.449Z,34.20
2018-09-23T00:03:02.954Z,32.33
2018-09-23T00:04:08.504Z,33.47
2018-09-23T00:05:13.939Z,33.87
2018-09-23T00:06:19.421Z,36.60
2018-09-23T00:07:25.117Z,36.40
2018-09-23T00:08:30.624Z,32.77
2018-09-23T00:09:36.200Z,31.03
2018-09-23T00:10:41.720Z,38.63
2018-09-23T00:11:47.228Z,31.50
2018-09-23T00:12:52.773Z,34.63
2018-09-23T00:13:58.240Z,29.63
2018-09-23T00:15:03.715Z,35.97
2018-09-23T00:16:09.168Z,32.60
2018-09-23T00:17:14.668Z,28.20
2018-09-23T00:18:20.141Z,37.50
2018-09-23T00:19:25.708Z,35.27
2018-09-23T00:20:31.164Z,27.80
2018-09-23T00:21:36.642Z,31.70
2018-09-23T00:22:42.111Z,34.23
2018-09-23T00:23:47.742Z,33.40
2018-09-23T00:24:53.205Z,36.53
2018-09-23T00:25:59.034Z,36.53
2018-09-23T00:27:04.633Z,28.90
2018-09-23T00:28:10.200Z,34.57
2018-09-23T00:29:20.008Z,34.30
2018-09-23T00:30:25.472Z,29.30
2018-09-23T00:31:31.038Z,33.23
2018-09-23T00:32:36.621Z,32.27
2018-09-23T00:33:42.222Z,30.97
2018-09-23T00:34:47.733Z,35.30
2018-09-23T00:35:53.491Z,32.03
2018-09-23T00:36:59.008Z,41.50
2018-09-23T00:38:04.471Z,29.57
2018-09-23T00:39:10.007Z,34.40
2018-09-23T00:40:15.617Z,31.87
2018-09-23T00:41:21.391Z,31.70
2018-09-23T00:42:26.952Z,32.63
2018-09-23T00:43:32.681Z,29.43
2018-09-23T00:44:38.324Z,31.40
2018-09-23T00:45:43.820Z,43.03
2018-09-23T00:46:49.272Z,29.30
2018-09-23T00:47:54.859Z,35.30
2018-09-23T00:49:00.390Z,30.63
2018-09-23T00:50:06.660Z,28.50
2018-09-23T00:51:12.461Z,35.70
2018-09-23T00:52:18.003Z,30.77
2018-09-23T00:53:23.462Z,35.80
2018-09-23T00:54:29.056Z,35.77
2018-09-23T00:55:34.529Z,38.30
2018-09-23T00:56:40.022Z,36.60
2018-09-23T00:57:45.683Z,40.33
2018-09-23T00:58:51.431Z,35.30
2018-09-23T00:59:57.064Z,40.23
2018-09-23T01:01:02.568Z,33.87
2018-09-23T01:02:08.129Z,39.70
2018-09-23T01:03:13.591Z,33.30
2018-09-23T01:04:19.143Z,38.80
2018-09-23T01:05:24.600Z,39.07
2018-09-23T01:06:30.146Z,34.73
2018-09-23T01:07:35.752Z,33.50
2018-09-23T01:08:41.185Z,33.07
2018-09-23T01:09:46.621Z,34.60
2018-09-23T01:10:52.160Z,36.40
2018-09-23T01:11:57.669Z,43.10
2018-09-23T01:13:03.089Z,40.63
2018-09-23T01:14:08.921Z,36.90
2018-09-23T01:15:14.382Z,31.37
2018-09-23T01:16:20.067Z,42.13
2018-09-23T01:17:25.606Z,35.57
2018-09-23T01:18:31.088Z,31.33
2018-09-23T01:19:36.527Z,40.53
2018-09-23T01:20:42.050Z,44.77
2018-09-23T01:21:47.569Z,38.53
2018-09-23T01:22:53.258Z,35.60
2018-09-23T01:23:58.778Z,30.50
2018-09-23T01:25:04.364Z,32.20
2018-09-23T01:26:09.893Z,35.27
2018-09-23T01:27:15.547Z,34.43
2018-09-23T01:28:20.961Z,38.53
2018-09-23T01:29:26.479Z,35.57
2018-09-23T01:30:32.142Z,32.67
2018-09-23T01:31:37.638Z,34.50
2018-09-23T01:32:43.075Z,33.13
2018-09-23T01:33:48.550Z,35.80
2018-09-23T01:34:54.133Z,34.97
2018-09-23T01:35:59.589Z,39.53
2018-09-23T01:37:05.050Z,30.50
2018-09-23T01:38:10.590Z,32.50
2018-09-23T01:39:16.160Z,37.40
2018-09-23T01:40:21.621Z,38.33
2018-09-23T01:41:27.091Z,42.87
2018-09-23T01:42:32.526Z,36.00
2018-09-23T01:43:38.013Z,38.50
2018-09-23T01:44:43.479Z,41.40
2018-09-23T01:45:48.929Z,37.50
2018-09-23T01:46:54.369Z,33.93
2018-09-23T01:47:59.800Z,35.57
2018-09-23T01:49:05.313Z,37.40
2018-09-23T01:50:10.807Z,43.53
2018-09-23T01:51:16.413Z,29.80
2018-09-23T01:52:21.881Z,31.90
2018-09-23T01:53:27.359Z,34.40
2018-09-23T01:54:32.812Z,34.17
2018-09-23T01:55:38.278Z,37.70
2018-09-23T01:56:43.849Z,33.13
2018-09-23T01:57:49.439Z,39.60
2018-09-23T01:58:55.188Z,35.97
2018-09-23T02:00:00.629Z,37.17
2018-09-23T02:01:06.152Z,31.30
2018-09-23T02:02:11.568Z,35.30
2018-09-23T02:03:17.001Z,39.13
2018-09-23T02:04:22.463Z,33.00
2018-09-23T02:05:27.897Z,38.50
2018-09-23T02:06:33.400Z,37.67
2018-09-23T02:07:39.062Z,38.00
2018-09-23T02:08:44.482Z,32.63
2018-09-23T02:09:50.041Z,29.00
2018-09-23T02:10:55.520Z,37.90
2018-09-23T02:12:01.062Z,34.30
2018-09-23T02:13:06.573Z,40.03
2018-09-23T02:14:12.040Z,37.10
2018-09-23T02:15:17.587Z,42.87
2018-09-23T02:16:23.046Z,41.23
2018-09-23T02:17:28.489Z,34.83
2018-09-23T02:18:33.947Z,37.10
2018-09-23T02:19:39.381Z,33.53
2018-09-23T02:20:44.942Z,48.30
2018-09-23T02:21:50.393Z,42.73
2018-09-23T02:22:55.825Z,41.77
2018-09-23T02:24:01.400Z,37.30
2018-09-23T02:25:06.977Z,40.33
2018-09-23T02:26:12.540Z,42.27
2018-09-23T02:27:17.976Z,42.00
2018-09-23T02:28:23.409Z,34.17
2018-09-23T02:29:28.912Z,35.37
2018-09-23T02:30:34.415Z,41.73
2018-09-23T02:31:39.878Z,36.53
2018-09-23T02:32:45.368Z,35.10
2018-09-23T02:33:50.813Z,36.53
2018-09-23T02:34:56.291Z,38.30
2018-09-23T02:36:01.720Z,40.43
2018-09-23T02:37:07.288Z,39.93
2018-09-23T02:38:12.875Z,37.40
2018-09-23T02:39:18.527Z,39.10
2018-09-23T02:40:24.328Z,39.00
2018-09-23T02:41:29.786Z,43.63
2018-09-23T02:42:35.175Z,42.50
2018-09-23T02:43:40.936Z,37.50
2018-09-23T02:44:46.358Z,41.40
2018-09-23T02:45:51.744Z,35.97
2018-09-23T02:46:57.181Z,43.50
2018-09-23T02:48:02.684Z,43.23
2018-09-23T02:49:08.151Z,45.10
2018-09-23T02:50:13.705Z,34.90
2018-09-23T02:51:19.131Z,38.63
2018-09-23T02:52:24.649Z,41.67
2018-09-23T02:53:30.052Z,43.77
2018-09-23T02:54:35.837Z,39.33
2018-09-23T02:55:41.400Z,41.40
2018-09-23T02:56:46.841Z,35.30
2018-09-23T02:57:52.282Z,41.70
2018-09-23T02:58:57.684Z,39.23
2018-09-23T03:00:03.149Z,42.70
2018-09-23T03:01:09.371Z,40.57
2018-09-23T03:02:14.818Z,42.67
2018-09-23T03:03:20.408Z,40.13
2018-09-23T03:04:25.919Z,35.67
2018-09-23T03:05:31.374Z,42.27
2018-09-23T03:06:37.225Z,38.77
2018-09-23T03:07:42.752Z,40.40
2018-09-23T03:08:48.234Z,39.67
2018-09-23T03:09:53.685Z,44.50
2018-09-23T03:10:59.133Z,43.17
2018-09-23T03:12:04.749Z,42.63
2018-09-23T03:13:10.437Z,44.27
2018-09-23T03:14:15.891Z,44.63
2018-09-23T03:15:21.294Z,44.40
2018-09-23T03:16:26.760Z,33.77
2018-09-23T03:17:32.156Z,38.60
2018-09-23T03:18:37.629Z,43.57
2018-09-23T03:19:43.064Z,41.97
2018-09-23T03:20:48.631Z,43.37
2018-09-23T03:21:54.073Z,43.30
2018-09-23T03:22:59.538Z,39.07
2018-09-23T03:24:05.072Z,38.20
2018-09-23T03:25:10.530Z,48.43
2018-09-23T03:26:16.049Z,40.60
2018-09-23T03:27:21.519Z,45.20
2018-09-23T03:28:27.007Z,44.40
2018-09-23T03:29:32.473Z,41.83
2018-09-23T03:30:37.989Z,45.60
2018-09-23T03:31:43.485Z,42.33
2018-09-23T03:32:48.987Z,43.87
2018-09-23T03:33:54.484Z,41.30
2018-09-23T03:35:00.021Z,43.00
2018-09-23T03:36:05.565Z,43.00
2018-09-23T03:37:11.145Z,44.40
2018-09-23T03:38:16.597Z,46.27
2018-09-23T03:39:22.093Z,44.33
2018-09-23T03:40:27.533Z,49.43
2018-09-23T03:41:32.981Z,53.63
2018-09-23T03:42:38.517Z,50.60
2018-09-23T03:43:44.072Z,40.30
2018-09-23T03:44:49.470Z,45.57
2018-09-23T03:45:55.017Z,41.00
2018-09-23T03:47:00.441Z,48.90
2018-09-23T03:48:06.099Z,48.60
2018-09-23T03:49:11.598Z,43.10
2018-09-23T03:50:17.065Z,53.83
2018-09-23T03:51:22.600Z,48.77
2018-09-23T03:52:28.060Z,45.30
2018-09-23T03:53:33.610Z,48.57
2018-09-23T03:54:39.120Z,45.17
2018-09-23T03:55:44.588Z,48.67
2018-09-23T03:56:50.075Z,42.60
2018-09-23T03:57:55.664Z,44.40
2018-09-23T03:59:01.101Z,47.63
2018-09-23T04:00:07.315Z,43.63
2018-09-23T04:01:12.740Z,41.63
2018-09-23T04:02:18.233Z,43.30
2018-09-23T04:03:23.971Z,48.13
2018-09-23T04:04:29.404Z,47.73
2018-09-23T04:05:35.462Z,41.63
2018-09-23T04:06:40.964Z,46.43
2018-09-23T04:07:46.393Z,45.47
2018-09-23T04:08:51.869Z,41.63
2018-09-23T04:09:57.402Z,52.40
2018-09-23T04:11:03.153Z,44.27
2018-09-23T04:12:08.653Z,46.33
2018-09-23T04:13:14.152Z,48.80
2018-09-23T04:14:19.608Z,39.87
2018-09-23T04:15:25.098Z,49.53
2018-09-23T04:16:30.545Z,38.80
2018-09-23T04:17:36.123Z,50.17
2018-09-23T04:18:42.793Z,38.97
2018-09-23T04:19:48.365Z,38.13
2018-09-23T04:20:53.833Z,39.20
2018-09-23T04:21:59.294Z,43.30
2018-09-23T04:23:04.831Z,42.87
2018-09-23T04:24:10.356Z,46.63
2018-09-23T04:25:16.060Z,41.57
2018-09-23T04:26:22.285Z,42.07
2018-09-23T04:27:27.897Z,44.10
2018-09-23T04:28:33.322Z,40.33
2018-09-23T04:29:38.798Z,49.10
2018-09-23T04:30:44.228Z,51.10
2018-09-23T04:31:49.828Z,44.53
2018-09-23T04:32:55.365Z,45.63
2018-09-23T04:34:00.845Z,41.00
2018-09-23T04:35:06.308Z,40.00
2018-09-23T04:36:11.849Z,42.70
2018-09-23T04:37:17.366Z,44.10
2018-09-23T04:38:22.878Z,37.37
2018-09-23T04:39:28.352Z,46.63
2018-09-23T04:40:33.993Z,42.80
2018-09-23T04:41:39.488Z,38.43
2018-09-23T04:42:44.988Z,37.40
2018-09-23T04:43:50.493Z,50.20
2018-09-23T04:44:56.140Z,47.40
2018-09-23T04:46:01.657Z,44.70
2018-09-23T04:47:07.349Z,51.40
2018-09-23T04:48:12.837Z,46.43
2018-09-23T04:49:18.321Z,43.80
2018-09-23T04:50:23.836Z,51.23
2018-09-23T04:51:29.523Z,52.37
2018-09-23T04:52:34.988Z,47.43
2018-09-23T04:53:40.448Z,46.80
2018-09-23T04:54:46.025Z,46.40
2018-09-23T04:55:51.482Z,53.40
2018-09-23T04:56:56.977Z,46.97
2018-09-23T04:58:02.530Z,50.33
2018-09-23T04:59:08.129Z,45.17
2018-09-23T05:00:13.735Z,51.93
2018-09-23T05:01:19.359Z,54.20
2018-09-23T05:02:24.810Z,56.97
2018-09-23T05:03:30.278Z,49.63
2018-09-23T05:04:35.791Z,53.63
2018-09-23T05:05:41.269Z,41.17
2018-09-23T05:06:46.709Z,46.77
2018-09-23T05:07:52.273Z,45.13
2018-09-23T05:08:57.717Z,55.50
2018-09-23T05:10:03.276Z,49.23
2018-09-23T05:11:08.766Z,49.93
2018-09-23T05:12:14.525Z,46.67
2018-09-23T05:13:20.100Z,54.60
2018-09-23T05:14:25.617Z,45.20
2018-09-23T05:15:31.043Z,47.90
2018-09-23T05:16:36.539Z,45.50
2018-09-23T05:17:42.017Z,50.70
2018-09-23T05:18:47.423Z,49.60
2018-09-23T05:19:52.824Z,47.90
2018-09-23T05:20:58.265Z,52.57
2018-09-23T05:22:04.115Z,50.10
2018-09-23T05:23:09.612Z,45.77
2018-09-23T05:24:15.108Z,45.13
2018-09-23T05:25:20.558Z,52.87
2018-09-23T05:26:26.062Z,47.93
2018-09-23T05:27:31.601Z,46.27
2018-09-23T05:28:37.039Z,50.07
2018-09-23T05:29:42.489Z,54.23
2018-09-23T05:30:48.211Z,49.83
2018-09-23T05:31:53.745Z,51.27
2018-09-23T05:32:59.281Z,53.80
2018-09-23T05:34:04.789Z,48.93
2018-09-23T05:35:10.315Z,46.20
2018-09-23T05:36:15.762Z,55.20
2018-09-23T05:37:21.235Z,51.20
2018-09-23T05:38:26.788Z,47.30
2018-09-23T05:39:32.377Z,53.73
2018-09-23T05:40:37.841Z,48.60
2018-09-23T05:41:43.300Z,48.53
2018-09-23T05:42:48.970Z,47.50
2018-09-23T05:43:54.633Z,57.30
2018-09-23T05:45:00.045Z,51.20
2018-09-23T05:46:05.914Z,43.03
2018-09-23T05:47:11.390Z,51.20
2018-09-23T05:48:16.845Z,55.13
2018-09-23T05:49:22.369Z,50.23
2018-09-23T05:50:27.811Z,58.87
2018-09-23T05:51:33.228Z,55.87
2018-09-23T05:52:39.618Z,50.50
2018-09-23T05:53:45.161Z,47.17
2018-09-23T05:54:50.795Z,47.17
2018-09-23T05:55:56.277Z,53.20
2018-09-23T05:57:01.771Z,51.50
2018-09-23T05:58:07.242Z,56.37
2018-09-23T05:59:12.705Z,50.40
2018-09-23T06:00:18.781Z,50.10
2018-09-23T06:01:24.302Z,51.90
2018-09-23T06:02:30.005Z,54.17
2018-09-23T06:03:35.537Z,53.20
2018-09-23T06:04:41.437Z,54.87
2018-09-23T06:05:46.888Z,49.00
2018-09-23T06:06:52.357Z,53.97
2018-09-23T06:07:57.818Z,49.50
2018-09-23T06:09:03.309Z,52.70
2018-09-23T06:10:08.873Z,49.07
2018-09-23T06:11:14.353Z,47.50
2018-09-23T06:12:19.828Z,55.17
2018-09-23T06:13:25.480Z,49.60
2018-09-23T06:14:30.909Z,52.10
2018-09-23T06:15:36.562Z,51.07
2018-09-23T06:16:42.013Z,48.93
2018-09-23T06:17:47.478Z,55.37
2018-09-23T06:18:53.005Z,48.03
2018-09-23T06:19:58.453Z,52.87
2018-09-23T06:21:03.912Z,64.03
2018-09-23T06:22:09.456Z,55.77
2018-09-23T06:23:15.001Z,50.63
2018-09-23T06:24:20.543Z,53.17
2018-09-23T06:25:26.013Z,55.67
2018-09-23T06:26:31.477Z,56.43
2018-09-23T06:27:36.934Z,56.37
2018-09-23T06:28:42.389Z,52.30
2018-09-23T06:29:47.924Z,57.93
2018-09-23T06:30:53.384Z,55.07
2018-09-23T06:31:58.866Z,57.50
2018-09-23T06:33:04.410Z,55.27
2018-09-23T06:34:10.260Z,47.70
2018-09-23T06:35:15.623Z,47.93
2018-09-23T06:36:21.189Z,54.10
2018-09-23T06:37:26.709Z,49.93
2018-09-23T06:38:32.208Z,50.97
2018-09-23T06:39:37.625Z,49.07
2018-09-23T06:40:43.132Z,50.90
2018-09-23T06:41:48.524Z,51.57
2018-09-23T06:42:53.982Z,50.97
2018-09-23T06:43:59.482Z,50.20
2018-09-23T06:45:05.936Z,50.33
2018-09-23T06:46:11.740Z,52.23
2018-09-23T06:47:17.295Z,49.23
2018-09-23T06:48:22.806Z,54.67
2018-09-23T06:49:28.743Z,51.93
2018-09-23T06:50:34.223Z,58.80
2018-09-23T06:51:39.725Z,56.07
2018-09-23T06:52:45.216Z,57.87
2018-09-23T06:53:52.775Z,52.17
2018-09-23T06:54:58.351Z,49.40
2018-09-23T06:56:03.885Z,57.27
2018-09-23T06:57:09.380Z,60.53
2018-09-23T06:58:14.837Z,48.80
2018-09-23T06:59:20.328Z,53.77
2018-09-23T07:00:25.829Z,51.83
2018-09-23T07:01:31.325Z,53.40
2018-09-23T07:02:38.004Z,50.27
2018-09-23T07:03:44.346Z,57.27
2018-09-23T07:04:49.913Z,65.90
2018-09-23T07:05:55.587Z,58.70
2018-09-23T07:07:01.253Z,56.20
2018-09-23T07:08:06.882Z,49.43
2018-09-23T07:09:12.346Z,53.97
2018-09-23T07:10:17.804Z,49.77
2018-09-23T07:11:23.216Z,59.07
2018-09-23T07:12:28.955Z,60.30
2018-09-23T07:13:34.427Z,56.60
2018-09-23T07:14:39.915Z,53.03
2018-09-23T07:15:45.433Z,49.27
2018-09-23T07:16:50.857Z,58.20
2018-09-23T07:17:56.707Z,59.83
2018-09-23T07:19:02.169Z,52.03
2018-09-23T07:20:07.739Z,53.23
2018-09-23T07:21:13.221Z,55.37
2018-09-23T07:22:18.685Z,51.77
2018-09-23T07:23:24.119Z,56.47
2018-09-23T07:24:29.601Z,49.93
2018-09-23T07:25:35.148Z,52.63
2018-09-23T07:26:40.741Z,56.30
2018-09-23T07:27:46.385Z,51.27
2018-09-23T07:28:51.945Z,54.23
2018-09-23T07:29:57.493Z,60.33
2018-09-23T07:31:02.990Z,49.00
2018-09-23T07:32:08.558Z,49.23
2018-09-23T07:33:14.024Z,51.47
2018-09-23T07:34:19.677Z,50.77
2018-09-23T07:35:25.148Z,58.27
2018-09-23T07:36:30.619Z,50.07
2018-09-23T07:37:36.096Z,50.47
2018-09-23T07:38:41.653Z,45.60
2018-09-23T07:39:47.643Z,48.83
2018-09-23T07:40:53.197Z,51.87
2018-09-23T07:41:58.672Z,55.83
2018-09-23T07:43:04.145Z,50.77
2018-09-23T07:44:09.834Z,51.20
2018-09-23T07:45:15.437Z,51.63
2018-09-23T07:46:21.008Z,50.73
2018-09-23T07:47:26.538Z,47.83
2018-09-23T07:48:32.212Z,54.80
2018-09-23T07:49:37.685Z,48.53
2018-09-23T07:50:43.207Z,44.97
2018-09-23T07:51:48.623Z,47.30
2018-09-23T07:52:54.128Z,51.73
2018-09-23T07:53:59.828Z,43.40
2018-09-23T07:55:05.405Z,48.37
2018-09-23T07:56:11.023Z,44.83
2018-09-23T07:57:16.469Z,46.47
2018-09-23T07:58:22.235Z,43.77
2018-09-23T07:59:27.702Z,46.20
2018-09-23T08:00:33.314Z,41.73
2018-09-23T08:01:38.772Z,45.80
2018-09-23T08:02:44.314Z,43.93
2018-09-23T08:03:49.834Z,39.20
2018-09-23T08:04:55.329Z,43.43
2018-09-23T08:06:00.932Z,38.10
2018-09-23T08:07:06.529Z,40.73
2018-09-23T08:08:11.961Z,42.90
2018-09-23T08:09:17.405Z,37.17
2018-09-23T08:10:23.362Z,42.73
2018-09-23T08:11:28.854Z,40.67
2018-09-23T08:12:34.544Z,43.87
2018-09-23T08:13:40.202Z,41.10
2018-09-23T08:14:45.993Z,46.73
2018-09-23T08:15:50.957Z,41.43
2018-09-23T08:16:56.457Z,40.50
2018-09-23T08:18:02.020Z,43.90
2018-09-23T08:19:08.235Z,39.30
2018-09-23T08:20:13.687Z,46.47
2018-09-23T08:21:19.348Z,42.27
2018-09-23T08:22:25.229Z,41.13
2018-09-23T08:23:30.874Z,42.30
2018-09-23T08:24:36.381Z,45.47
2018-09-23T08:25:41.902Z,43.80
2018-09-23T08:26:47.304Z,45.77
2018-09-23T08:27:53.108Z,49.97
2018-09-23T08:28:58.691Z,46.23
2018-09-23T08:30:04.229Z,48.77
2018-09-23T08:31:09.910Z,54.37
2018-09-23T08:32:15.436Z,50.13
2018-09-23T08:33:20.941Z,48.30
2018-09-23T08:34:26.547Z,59.20
2018-09-23T08:35:32.053Z,50.80
2018-09-23T08:36:37.540Z,49.93
2018-09-23T08:37:43.025Z,57.03
2018-09-23T08:38:49.097Z,51.40
2018-09-23T08:39:54.933Z,51.93
2018-09-23T08:41:00.685Z,54.77
2018-09-23T08:42:06.357Z,53.97
2018-09-23T08:43:11.910Z,49.40
2018-09-23T08:44:17.429Z,53.30
2018-09-23T08:45:22.899Z,60.10
2018-09-23T08:46:28.456Z,49.27
2018-09-23T08:47:33.900Z,52.47
2018-09-23T08:48:39.459Z,49.10
2018-09-23T08:49:44.924Z,52.80
2018-09-23T08:50:50.477Z,55.50
2018-09-23T08:51:56.215Z,54.83
2018-09-23T08:53:01.658Z,61.73
2018-09-23T08:54:07.200Z,54.60
2018-09-23T08:55:12.681Z,60.10
2018-09-23T08:56:18.188Z,67.93
2018-09-23T08:57:24.059Z,63.97
2018-09-23T08:58:29.609Z,64.70
2018-09-23T08:59:35.068Z,62.93
2018-09-23T09:00:40.589Z,65.53
2018-09-23T09:01:46.137Z,63.80
2018-09-23T09:02:52.141Z,61.17
2018-09-23T09:03:57.734Z,59.67
2018-09-23T09:05:03.266Z,63.30
2018-09-23T09:06:09.258Z,57.73
2018-09-23T09:07:14.697Z,61.13
2018-09-23T09:08:20.245Z,65.07
2018-09-23T09:09:25.809Z,70.80
2018-09-23T09:10:31.276Z,55.00
2018-09-23T09:11:37.117Z,60.83
2018-09-23T09:12:42.587Z,58.93
2018-09-23T09:13:48.094Z,59.33
2018-09-23T09:14:53.694Z,53.87
2018-09-23T09:15:59.659Z,60.60
2018-09-23T09:17:05.190Z,60.30
2018-09-23T09:18:10.692Z,50.97
2018-09-23T09:19:16.225Z,56.67
2018-09-23T09:20:21.703Z,53.80
2018-09-23T09:21:27.229Z,55.17
2018-09-23T09:22:32.647Z,56.03
2018-09-23T09:23:38.109Z,54.13
2018-09-23T09:24:43.576Z,49.57
2018-09-23T09:25:49.170Z,53.80
2018-09-23T09:26:54.662Z,56.40
2018-09-23T09:28:00.165Z,55.50
2018-09-23T09:29:05.738Z,55.50
2018-09-23T09:30:11.249Z,50.80
2018-09-23T09:31:16.824Z,49.07
2018-09-23T09:32:22.418Z,54.30
2018-09-23T09:33:28.450Z,51.73
2018-09-23T09:34:34.069Z,61.23
2018-09-23T09:35:39.557Z,53.93
2018-09-23T09:36:45.249Z,56.00
2018-09-23T09:37:50.730Z,49.80
2018-09-23T09:38:56.280Z,51.97
2018-09-23T09:40:01.730Z,65.33
2018-09-23T09:41:07.850Z,69.00
2018-09-23T09:42:13.409Z,52.87
2018-09-23T09:43:18.908Z,56.73
2018-09-23T09:44:24.421Z,63.03
2018-09-23T09:45:29.993Z,52.10
2018-09-23T09:46:35.756Z,59.03
2018-09-23T09:47:41.281Z,53.97
2018-09-23T09:48:47.276Z,56.20
2018-09-23T09:49:52.757Z,54.97
2018-09-23T09:50:58.210Z,59.07
2018-09-23T09:52:05.047Z,61.27
2018-09-23T09:53:10.478Z,57.53
2018-09-23T09:54:16.177Z,56.70
2018-09-23T09:55:21.703Z,64.90
2018-09-23T09:56:27.265Z,62.07
2018-09-23T09:57:32.795Z,66.53
2018-09-23T09:58:38.308Z,67.10
2018-09-23T09:59:43.840Z,60.47
2018-09-23T10:00:49.390Z,67.00
2018-09-23T10:01:54.886Z,74.47
2018-09-23T10:03:00.345Z,75.50
2018-09-23T10:04:05.994Z,64.50
2018-09-23T10:05:11.522Z,76.00
2018-09-23T10:06:16.972Z,74.23
2018-09-23T10:07:22.436Z,63.37
2018-09-23T10:08:28.006Z,69.90
2018-09-23T10:09:33.520Z,71.70
2018-09-23T10:10:39.000Z,74.20
2018-09-23T10:11:44.601Z,63.80
2018-09-23T10:12:50.129Z,74.87
2018-09-23T10:13:55.565Z,74.60
2018-09-23T10:15:01.055Z,67.40
2018-09-23T10:16:07.085Z,82.53
2018-09-23T10:17:12.538Z,69.03
2018-09-23T10:18:18.021Z,58.47
2018-09-23T10:19:23.614Z,72.47
2018-09-23T10:20:29.193Z,67.80
2018-09-23T10:21:35.428Z,70.67
2018-09-23T10:22:41.138Z,75.40
2018-09-23T10:23:46.564Z,81.90
2018-09-23T10:24:52.549Z,77.63
2018-09-23T10:25:58.099Z,68.83
2018-09-23T10:27:03.713Z,67.93
2018-09-23T10:28:09.308Z,63.07
2018-09-23T10:29:15.174Z,72.20
2018-09-23T10:30:20.818Z,71.77
2018-09-23T10:31:26.393Z,76.97
2018-09-23T10:32:31.933Z,72.90
2018-09-23T10:33:37.479Z,70.47
2018-09-23T10:34:43.042Z,75.13
2018-09-23T10:35:48.742Z,63.00
2018-09-23T10:36:54.393Z,64.43
2018-09-23T10:37:59.970Z,63.60
2018-09-23T10:39:08.048Z,64.53
2018-09-23T10:40:13.633Z,69.87
2018-09-23T10:41:19.167Z,63.10
2018-09-23T10:42:25.041Z,75.70
2018-09-23T10:43:30.576Z,78.43
2018-09-23T10:44:36.125Z,77.50
2018-09-23T10:45:41.789Z,64.87
2018-09-23T10:46:47.637Z,76.13
2018-09-23T10:47:53.466Z,68.87
2018-09-23T10:48:59.353Z,59.70
2018-09-23T10:50:05.093Z,69.50
2018-09-23T10:51:10.906Z,67.60
2018-09-23T10:52:16.658Z,67.63
2018-09-23T10:53:22.056Z,83.87
2018-09-23T10:54:27.841Z,68.03
2018-09-23T10:55:33.708Z,78.80
2018-09-23T10:56:39.476Z,76.37
2018-09-23T10:57:45.312Z,68.90
2018-09-23T10:58:50.961Z,60.27
2018-09-23T10:59:56.703Z,62.87
2018-09-23T11:01:02.512Z,63.50
2018-09-23T11:02:08.291Z,60.53
2018-09-23T11:03:14.029Z,63.23
2018-09-23T11:04:20.025Z,69.67
2018-09-23T11:05:25.696Z,70.93
2018-09-23T11:06:31.181Z,66.20
2018-09-23T11:07:36.734Z,59.93
2018-09-23T11:08:42.213Z,64.83
2018-09-23T11:09:47.926Z,72.83
2018-09-23T11:10:53.597Z,75.20
2018-09-23T11:11:59.186Z,78.97
2018-09-23T11:13:04.846Z,68.00
2018-09-23T11:14:11.077Z,74.67
2018-09-23T11:15:16.837Z,78.47
2018-09-23T11:16:22.396Z,82.10
2018-09-23T11:17:28.209Z,82.60
2018-09-23T11:18:33.781Z,75.50
2018-09-23T11:19:39.637Z,66.40
2018-09-23T11:20:45.454Z,69.67
2018-09-23T11:21:51.024Z,77.97
2018-09-23T11:22:56.825Z,76.10
2018-09-23T11:24:02.592Z,86.60
2018-09-23T11:25:08.349Z,69.77
2018-09-23T11:26:14.247Z,76.83
2018-09-23T11:27:19.870Z,95.07
2018-09-23T11:28:25.502Z,93.97
2018-09-23T11:29:31.298Z,69.03
2018-09-23T11:30:36.996Z,70.60
2018-09-23T11:31:42.833Z,79.67
2018-09-23T11:32:48.527Z,68.37
2018-09-23T11:33:54.194Z,73.57
2018-09-23T11:35:00.068Z,75.20
2018-09-23T11:36:06.245Z,88.57
2018-09-23T11:37:12.179Z,91.47
2018-09-23T11:38:18.036Z,87.47
2018-09-23T11:39:23.678Z,77.97
2018-09-23T11:40:29.305Z,69.20
2018-09-23T11:41:34.960Z,69.93
2018-09-23T11:42:40.762Z,73.70
2018-09-23T11:43:46.382Z,73.70
2018-09-23T11:44:51.946Z,64.77
2018-09-23T11:45:57.758Z,75.37
2018-09-23T11:47:03.395Z,67.57
2018-09-23T11:48:09.097Z,69.00
2018-09-23T11:49:14.794Z,78.53
2018-09-23T11:50:20.599Z,58.73
2018-09-23T11:51:26.426Z,53.30
2018-09-23T11:52:32.237Z,60.27
2018-09-23T11:53:38.196Z,48.60
2018-09-23T11:54:44.112Z,45.10
2018-09-23T11:55:49.749Z,32.27
2018-09-23T11:56:55.393Z,37.23
2018-09-23T11:58:01.105Z,31.13
2018-09-23T11:59:06.731Z,35.13
2018-09-23T12:00:12.717Z,30.47
2018-09-23T12:01:18.390Z,39.07
2018-09-23T12:02:24.540Z,33.50
2018-09-23T12:03:30.212Z,37.87
2018-09-23T12:04:35.843Z,29.07
2018-09-23T12:05:42.281Z,32.30
2018-09-23T12:06:48.134Z,33.17
2018-09-23T12:07:53.949Z,36.47
2018-09-23T12:08:59.674Z,31.23
2018-09-23T12:10:05.620Z,36.03
2018-09-23T12:11:11.063Z,37.63
2018-09-23T12:12:16.897Z,39.27
2018-09-23T12:13:22.564Z,39.03
2018-09-23T12:14:28.316Z,38.63
2018-09-23T12:15:34.204Z,40.60
2018-09-23T12:16:39.918Z,35.10
2018-09-23T12:17:45.635Z,31.83
2018-09-23T12:18:51.321Z,31.13
2018-09-23T12:19:57.104Z,31.43
2018-09-23T12:21:02.989Z,31.00
2018-09-23T12:22:08.815Z,39.43
2018-09-23T12:23:14.458Z,33.57
2018-09-23T12:24:19.970Z,36.53
2018-09-23T12:25:25.439Z,28.90
2018-09-23T12:26:31.017Z,37.20
2018-09-23T12:27:36.537Z,27.33
2018-09-23T12:28:42.060Z,28.53
2018-09-23T12:29:47.565Z,27.40
2018-09-23T12:30:53.226Z,25.30
2018-09-23T12:31:58.668Z,26.13
2018-09-23T12:33:04.216Z,23.43
2018-09-23T12:34:10.462Z,23.80
2018-09-23T12:35:15.941Z,32.43
2018-09-23T12:36:22.031Z,27.83
2018-09-23T12:37:27.818Z,30.13
2018-09-23T12:38:34.824Z,33.47
2018-09-23T12:39:40.613Z,37.83
2018-09-23T12:40:46.305Z,30.80
2018-09-23T12:41:51.850Z,28.73
2018-09-23T12:42:57.649Z,28.37
2018-09-23T12:44:03.351Z,31.50
2018-09-23T12:45:09.348Z,32.80
2018-09-23T12:46:14.917Z,34.33
2018-09-23T12:47:20.593Z,36.60
2018-09-23T12:48:26.306Z,40.10
2018-09-23T12:49:32.164Z,33.57
2018-09-23T12:50:37.953Z,29.93
2018-09-23T12:51:43.614Z,33.60
2018-09-23T12:52:49.656Z,36.40
2018-09-23T12:53:55.572Z,30.53
2018-09-23T12:55:01.084Z,27.60
2018-09-23T12:56:06.953Z,30.23
2018-09-23T12:57:12.609Z,30.57
2018-09-23T12:58:18.399Z,30.13
2018-09-23T12:59:24.157Z,34.10
2018-09-23T13:00:29.866Z,31.20
2018-09-23T13:01:35.566Z,29.30
2018-09-23T13:02:41.097Z,33.77
2018-09-23T13:03:46.798Z,36.03
2018-09-23T13:04:52.514Z,33.10
2018-09-23T13:05:57.976Z,31.87
2018-09-23T13:07:03.513Z,28.63
2018-09-23T13:08:09.098Z,32.80
2018-09-23T13:09:14.677Z,28.87
2018-09-23T13:10:20.118Z,37.83
2018-09-23T13:11:25.601Z,32.83
2018-09-23T13:12:31.013Z,34.30
2018-09-23T13:13:36.528Z,28.60
2018-09-23T13:14:42.047Z,29.10
2018-09-23T13:15:47.520Z,28.13
2018-09-23T13:16:53.034Z,29.40
2018-09-23T13:17:58.655Z,27.17
2018-09-23T13:19:04.103Z,35.70
2018-09-23T13:20:09.604Z,29.87
2018-09-23T13:21:15.130Z,31.70
2018-09-23T13:22:20.618Z,36.50
2018-09-23T13:23:26.149Z,32.60
2018-09-23T13:24:31.670Z,30.50
2018-09-23T13:25:37.124Z,32.43
2018-09-23T13:26:42.633Z,32.97
2018-09-23T13:27:48.125Z,26.43
2018-09-23T13:28:53.633Z,29.80
2018-09-23T13:29:59.308Z,33.60
2018-09-23T13:31:04.830Z,32.70
2018-09-23T13:32:10.265Z,26.33
2018-09-23T13:33:15.819Z,28.27
2018-09-23T13:34:21.360Z,38.23
2018-09-23T13:35:26.988Z,24.73
2018-09-23T13:36:32.470Z,39.27
2018-09-23T13:37:38.149Z,25.80
2018-09-23T13:38:43.634Z,29.40
2018-09-23T13:39:49.197Z,23.50
2018-09-23T13:40:54.694Z,26.80
2018-09-23T13:42:00.313Z,34.87
2018-09-23T13:43:05.905Z,28.80
2018-09-23T13:44:11.452Z,28.97
2018-09-23T13:45:16.952Z,28.63
2018-09-23T13:46:22.461Z,28.83
2018-09-23T13:47:27.939Z,27.83
2018-09-23T13:48:33.455Z,35.20
2018-09-23T13:49:39.304Z,28.03
2018-09-23T13:50:44.893Z,29.30
2018-09-23T13:51:50.428Z,21.67
2018-09-23T13:52:55.912Z,23.10
2018-09-23T13:54:01.404Z,30.37
2018-09-23T13:55:06.946Z,30.20
2018-09-23T13:56:12.421Z,28.90
2018-09-23T13:57:17.924Z,18.83
2018-09-23T13:58:23.432Z,31.87
2018-09-23T13:59:29.065Z,29.63
2018-09-23T14:00:34.568Z,38.40
2018-09-23T14:01:40.013Z,22.33
2018-09-23T14:02:45.634Z,20.13
2018-09-23T14:03:51.092Z,21.70
2018-09-23T14:04:56.603Z,20.93